sensor_id;sensor_type;location;lat;lon;timestamp;P1;durP1;ratioP1;P2;durP2;ratioP2
59828;SDS011;45708;51.848;107.620;2023-02-28T00:00:41;6.03;;;1.53;;
59828;SDS011;45708;51.848;107.620;2023-02-28T00:05:42;3.87;;;3.67;;
59828;SDS011;45708;51.848;107.620;2023-02-28T00:10:43;1.60;;;1.50;;
59828;SDS011;45708;51.848;107.620;2023-02-28T00:15:44;3.70;;;3.47;;
59828;SDS011;45708;51.848;107.620;2023-02-28T00:20:45;8.67;;;6.00;;
59828;SDS011;45708;51.848;107.620;2023-02-28T00:25:46;6.97;;;5.43;;
59828;SDS011;45708;51.848;107.620;2023-02-28T00:30:46;10.07;;;9.00;;
59828;SDS011;45708;51.848;107.620;2023-02-28T00:35:47;12.60;;;4.67;;
59828;SDS011;45708;51.848;107.620;2023-02-28T00:40:48;1.70;;;1.60;;
59828;SDS011;45708;51.848;107.620;2023-02-28T00:45:49;3.10;;;2.87;;
59828;SDS011;45708;51.848;107.620;2023-02-28T00:50:50;19.67;;;6.27;;
59828;SDS011;45708;51.848;107.620;2023-02-28T00:55:50;5.93;;;5.37;;
59828;SDS011;45708;51.848;107.620;2023-02-28T01:00:52;10.40;;;6.77;;
59828;SDS011;45708;51.848;107.620;2023-02-28T01:05:53;11.43;;;4.47;;
59828;SDS011;45708;51.848;107.620;2023-02-28T01:10:53;10.40;;;7.10;;
59828;SDS011;45708;51.848;107.620;2023-02-28T01:15:55;19.63;;;10.13;;
59828;SDS011;45708;51.848;107.620;2023-02-28T01:20:56;10.87;;;7.73;;
59828;SDS011;45708;51.848;107.620;2023-02-28T01:25:57;13.00;;;6.77;;
59828;SDS011;45708;51.848;107.620;2023-02-28T01:31:04;8.53;;;4.03;;
59828;SDS011;45708;51.848;107.620;2023-02-28T01:36:07;14.50;;;5.83;;
59828;SDS011;45708;51.848;107.620;2023-02-28T01:41:23;13.93;;;5.77;;
59828;SDS011;45708;51.848;107.620;2023-02-28T01:46:30;16.70;;;5.87;;
59828;SDS011;45708;51.848;107.620;2023-02-28T01:51:34;9.00;;;4.23;;
59828;SDS011;45708;51.848;107.620;2023-02-28T01:56:47;8.63;;;4.23;;
59828;SDS011;45708;51.848;107.620;2023-02-28T02:01:56;9.37;;;4.63;;
59828;SDS011;45708;51.848;107.620;2023-02-28T02:06:57;8.50;;;7.67;;
59828;SDS011;45708;51.848;107.620;2023-02-28T02:11:59;7.83;;;4.90;;
59828;SDS011;45708;51.848;107.620;2023-02-28T02:17:14;19.47;;;6.50;;
59828;SDS011;45708;51.848;107.620;2023-02-28T02:37:52;5.87;;;4.63;;
59828;SDS011;45708;51.848;107.620;2023-02-28T02:43:16;15.83;;;5.63;;
59828;SDS011;45708;51.848;107.620;2023-02-28T02:48:25;12.90;;;7.00;;
59828;SDS011;45708;51.848;107.620;2023-02-28T02:53:36;8.43;;;3.87;;
59828;SDS011;45708;51.848;107.620;2023-02-28T02:58:42;13.67;;;7.07;;
59828;SDS011;45708;51.848;107.620;2023-02-28T03:03:46;9.27;;;6.00;;
59828;SDS011;45708;51.848;107.620;2023-02-28T03:08:47;10.90;;;6.43;;
59828;SDS011;45708;51.848;107.620;2023-02-28T03:24:41;10.97;;;5.80;;
59828;SDS011;45708;51.848;107.620;2023-02-28T03:30:04;8.73;;;5.63;;
59828;SDS011;45708;51.848;107.620;2023-02-28T03:35:23;4.13;;;3.70;;
59828;SDS011;45708;51.848;107.620;2023-02-28T03:40:33;7.70;;;5.23;;
59828;SDS011;45708;51.848;107.620;2023-02-28T03:45:38;5.70;;;3.93;;
59828;SDS011;45708;51.848;107.620;2023-02-28T03:50:43;12.57;;;6.47;;
59828;SDS011;45708;51.848;107.620;2023-02-28T03:55:48;12.93;;;6.77;;
59828;SDS011;45708;51.848;107.620;2023-02-28T04:00:59;9.10;;;4.60;;
59828;SDS011;45708;51.848;107.620;2023-02-28T04:06:07;11.47;;;6.23;;
59828;SDS011;45708;51.848;107.620;2023-02-28T04:11:27;15.30;;;6.77;;
59828;SDS011;45708;51.848;107.620;2023-02-28T04:16:36;7.17;;;3.47;;
59828;SDS011;45708;51.848;107.620;2023-02-28T04:21:48;8.57;;;4.63;;
59828;SDS011;45708;51.848;107.620;2023-02-28T04:26:52;9.60;;;4.20;;
59828;SDS011;45708;51.848;107.620;2023-02-28T04:31:55;20.70;;;7.87;;
59828;SDS011;45708;51.848;107.620;2023-02-28T04:36:56;7.03;;;3.63;;
59828;SDS011;45708;51.848;107.620;2023-02-28T04:41:58;10.00;;;4.73;;
59828;SDS011;45708;51.848;107.620;2023-02-28T04:46:59;8.13;;;4.70;;
59828;SDS011;45708;51.848;107.620;2023-02-28T04:51:59;7.43;;;3.87;;
59828;SDS011;45708;51.848;107.620;2023-02-28T04:57:00;15.77;;;6.70;;
59828;SDS011;45708;51.848;107.620;2023-02-28T05:02:01;7.77;;;5.63;;
59828;SDS011;45708;51.848;107.620;2023-02-28T05:07:03;5.60;;;3.23;;
59828;SDS011;45708;51.848;107.620;2023-02-28T05:12:04;10.53;;;5.13;;
59828;SDS011;45708;51.848;107.620;2023-02-28T05:17:06;7.40;;;3.37;;
59828;SDS011;45708;51.848;107.620;2023-02-28T05:22:14;12.23;;;6.33;;
59828;SDS011;45708;51.848;107.620;2023-02-28T05:27:16;9.63;;;5.73;;
59828;SDS011;45708;51.848;107.620;2023-02-28T05:32:17;13.50;;;6.03;;
59828;SDS011;45708;51.848;107.620;2023-02-28T05:37:18;10.77;;;5.27;;
59828;SDS011;45708;51.848;107.620;2023-02-28T05:42:18;9.20;;;4.43;;
59828;SDS011;45708;51.848;107.620;2023-02-28T05:47:19;6.17;;;3.33;;
59828;SDS011;45708;51.848;107.620;2023-02-28T05:52:20;10.47;;;4.43;;
59828;SDS011;45708;51.848;107.620;2023-02-28T05:57:21;11.27;;;6.53;;
59828;SDS011;45708;51.848;107.620;2023-02-28T06:02:23;10.33;;;4.93;;
59828;SDS011;45708;51.848;107.620;2023-02-28T06:07:24;15.30;;;7.13;;
59828;SDS011;45708;51.848;107.620;2023-02-28T06:12:24;16.13;;;8.30;;
59828;SDS011;45708;51.848;107.620;2023-02-28T06:17:26;5.00;;;3.17;;
59828;SDS011;45708;51.848;107.620;2023-02-28T06:22:27;12.45;;;4.50;;
59828;SDS011;45708;51.848;107.620;2023-02-28T06:27:28;5.53;;;3.47;;
59828;SDS011;45708;51.848;107.620;2023-02-28T06:32:31;7.57;;;4.27;;
59828;SDS011;45708;51.848;107.620;2023-02-28T06:37:32;2.72;;;2.00;;
59828;SDS011;45708;51.848;107.620;2023-02-28T06:42:33;5.95;;;3.78;;
59828;SDS011;45708;51.848;107.620;2023-02-28T06:47:35;3.72;;;2.72;;
59828;SDS011;45708;51.848;107.620;2023-02-28T06:52:37;3.03;;;2.40;;
59828;SDS011;45708;51.848;107.620;2023-02-28T06:57:38;1.30;;;1.17;;
59828;SDS011;45708;51.848;107.620;2023-02-28T07:02:39;5.67;;;1.67;;
59828;SDS011;45708;51.848;107.620;2023-02-28T07:07:40;6.93;;;3.00;;
59828;SDS011;45708;51.848;107.620;2023-02-28T07:12:40;3.83;;;2.20;;
59828;SDS011;45708;51.848;107.620;2023-02-28T07:17:41;5.43;;;1.47;;
59828;SDS011;45708;51.848;107.620;2023-02-28T07:22:42;5.43;;;2.10;;
59828;SDS011;45708;51.848;107.620;2023-02-28T07:27:43;5.20;;;2.03;;
59828;SDS011;45708;51.848;107.620;2023-02-28T07:32:45;2.43;;;1.97;;
59828;SDS011;45708;51.848;107.620;2023-02-28T07:37:46;2.37;;;1.87;;
59828;SDS011;45708;51.848;107.620;2023-02-28T07:42:47;2.67;;;1.77;;
59828;SDS011;45708;51.848;107.620;2023-02-28T07:47:48;6.10;;;2.37;;
59828;SDS011;45708;51.848;107.620;2023-02-28T07:52:48;3.43;;;1.60;;
59828;SDS011;45708;51.848;107.620;2023-02-28T07:57:49;3.37;;;1.80;;
59828;SDS011;45708;51.848;107.620;2023-02-28T08:02:50;1.77;;;1.67;;
59828;SDS011;45708;51.848;107.620;2023-02-28T08:07:52;3.80;;;2.17;;
59828;SDS011;45708;51.848;107.620;2023-02-28T08:12:54;6.00;;;2.87;;
59828;SDS011;45708;51.848;107.620;2023-02-28T08:17:54;8.97;;;3.27;;
59828;SDS011;45708;51.848;107.620;2023-02-28T08:22:55;4.93;;;3.13;;
59828;SDS011;45708;51.848;107.620;2023-02-28T08:27:56;3.27;;;1.63;;
59828;SDS011;45708;51.848;107.620;2023-02-28T08:32:57;6.00;;;3.07;;
59828;SDS011;45708;51.848;107.620;2023-02-28T08:37:58;2.27;;;2.07;;
59828;SDS011;45708;51.848;107.620;2023-02-28T08:42:59;4.20;;;2.43;;
59828;SDS011;45708;51.848;107.620;2023-02-28T08:48:00;5.47;;;2.50;;
59828;SDS011;45708;51.848;107.620;2023-02-28T08:53:00;11.23;;;4.80;;
59828;SDS011;45708;51.848;107.620;2023-02-28T08:58:01;3.17;;;1.77;;
59828;SDS011;45708;51.848;107.620;2023-02-28T09:03:02;5.67;;;2.77;;
59828;SDS011;45708;51.848;107.620;2023-02-28T09:08:03;9.27;;;4.33;;
59828;SDS011;45708;51.848;107.620;2023-02-28T09:13:04;6.53;;;4.60;;
59828;SDS011;45708;51.848;107.620;2023-02-28T09:18:06;12.57;;;6.33;;
59828;SDS011;45708;51.848;107.620;2023-02-28T09:23:08;4.60;;;3.03;;
59828;SDS011;45708;51.848;107.620;2023-02-28T09:28:10;9.13;;;4.10;;
59828;SDS011;45708;51.848;107.620;2023-02-28T09:33:11;8.17;;;3.27;;
59828;SDS011;45708;51.848;107.620;2023-02-28T09:38:14;6.27;;;4.63;;
59828;SDS011;45708;51.848;107.620;2023-02-28T09:43:15;2.33;;;2.00;;
59828;SDS011;45708;51.848;107.620;2023-02-28T09:48:39;7.70;;;3.70;;
59828;SDS011;45708;51.848;107.620;2023-02-28T09:53:41;4.67;;;2.70;;
59828;SDS011;45708;51.848;107.620;2023-02-28T10:03:56;10.07;;;4.63;;
59828;SDS011;45708;51.848;107.620;2023-02-28T10:09:10;18.17;;;8.47;;
59828;SDS011;45708;51.848;107.620;2023-02-28T10:14:17;14.63;;;7.75;;
59828;SDS011;45708;51.848;107.620;2023-02-28T10:19:44;5.77;;;4.13;;
59828;SDS011;45708;51.848;107.620;2023-02-28T10:24:59;10.27;;;4.13;;
59828;SDS011;45708;51.848;107.620;2023-02-28T10:30:01;27.67;;;11.43;;
59828;SDS011;45708;51.848;107.620;2023-02-28T10:45:20;9.97;;;7.50;;
59828;SDS011;45708;51.848;107.620;2023-02-28T10:50:28;22.07;;;11.67;;
59828;SDS011;45708;51.848;107.620;2023-02-28T10:55:29;8.33;;;4.53;;
59828;SDS011;45708;51.848;107.620;2023-02-28T11:00:34;10.63;;;6.10;;
59828;SDS011;45708;51.848;107.620;2023-02-28T11:05:36;11.10;;;4.80;;
59828;SDS011;45708;51.848;107.620;2023-02-28T11:10:37;4.83;;;3.83;;
59828;SDS011;45708;51.848;107.620;2023-02-28T11:15:38;19.80;;;9.17;;
59828;SDS011;45708;51.848;107.620;2023-02-28T11:20:39;30.50;;;13.87;;
59828;SDS011;45708;51.848;107.620;2023-02-28T11:25:40;35.33;;;16.40;;
59828;SDS011;45708;51.848;107.620;2023-02-28T11:31:34;39.43;;;19.53;;
59828;SDS011;45708;51.848;107.620;2023-02-28T12:13:55;37.10;;;15.73;;
59828;SDS011;45708;51.848;107.620;2023-02-28T12:19:19;36.20;;;17.93;;
59828;SDS011;45708;51.848;107.620;2023-02-28T12:30:04;21.63;;;12.03;;
59828;SDS011;45708;51.848;107.620;2023-02-28T12:35:18;28.93;;;15.70;;
59828;SDS011;45708;51.848;107.620;2023-02-28T12:40:25;40.07;;;18.27;;
59828;SDS011;45708;51.848;107.620;2023-02-28T12:45:50;50.47;;;24.00;;
59828;SDS011;45708;51.848;107.620;2023-02-28T12:51:01;49.20;;;26.00;;
59828;SDS011;45708;51.848;107.620;2023-02-28T12:56:19;49.37;;;24.00;;
59828;SDS011;45708;51.848;107.620;2023-02-28T13:07:08;85.00;;;36.57;;
59828;SDS011;45708;51.848;107.620;2023-02-28T13:12:29;74.17;;;28.90;;
59828;SDS011;45708;51.848;107.620;2023-02-28T13:17:31;49.03;;;20.70;;
59828;SDS011;45708;51.848;107.620;2023-02-28T13:22:40;69.93;;;29.63;;
59828;SDS011;45708;51.848;107.620;2023-02-28T13:27:44;70.50;;;30.40;;
59828;SDS011;45708;51.848;107.620;2023-02-28T13:32:45;84.97;;;34.00;;
59828;SDS011;45708;51.848;107.620;2023-02-28T13:37:47;79.87;;;33.23;;
59828;SDS011;45708;51.848;107.620;2023-02-28T13:42:48;86.13;;;38.87;;
59828;SDS011;45708;51.848;107.620;2023-02-28T13:47:53;65.23;;;32.60;;
59828;SDS011;45708;51.848;107.620;2023-02-28T14:09:05;46.23;;;24.43;;
59828;SDS011;45708;51.848;107.620;2023-02-28T14:19:36;30.87;;;16.10;;
59828;SDS011;45708;51.848;107.620;2023-02-28T14:29:45;46.60;;;21.70;;
59828;SDS011;45708;51.848;107.620;2023-02-28T14:40:54;61.93;;;24.70;;
59828;SDS011;45708;51.848;107.620;2023-02-28T14:46:02;55.30;;;21.47;;
59828;SDS011;45708;51.848;107.620;2023-02-28T14:51:09;70.33;;;25.37;;
59828;SDS011;45708;51.848;107.620;2023-02-28T14:56:19;34.77;;;15.87;;
59828;SDS011;45708;51.848;107.620;2023-02-28T15:01:25;38.40;;;17.53;;
59828;SDS011;45708;51.848;107.620;2023-02-28T15:06:26;46.20;;;19.30;;
59828;SDS011;45708;51.848;107.620;2023-02-28T15:11:27;35.50;;;19.70;;
59828;SDS011;45708;51.848;107.620;2023-02-28T15:16:36;60.43;;;21.17;;
59828;SDS011;45708;51.848;107.620;2023-02-28T15:21:41;51.97;;;21.90;;
59828;SDS011;45708;51.848;107.620;2023-02-28T15:26:47;25.43;;;11.20;;
59828;SDS011;45708;51.848;107.620;2023-02-28T15:32:02;45.87;;;17.40;;
59828;SDS011;45708;51.848;107.620;2023-02-28T15:37:25;24.37;;;10.73;;
59828;SDS011;45708;51.848;107.620;2023-02-28T15:42:30;16.03;;;8.13;;
59828;SDS011;45708;51.848;107.620;2023-02-28T15:47:32;12.43;;;7.97;;
59828;SDS011;45708;51.848;107.620;2023-02-28T15:52:34;36.70;;;12.07;;
59828;SDS011;45708;51.848;107.620;2023-02-28T15:57:39;20.47;;;7.67;;
59828;SDS011;45708;51.848;107.620;2023-02-28T16:02:41;17.77;;;7.30;;
59828;SDS011;45708;51.848;107.620;2023-02-28T16:07:42;18.43;;;8.90;;
59828;SDS011;45708;51.848;107.620;2023-02-28T16:12:43;17.03;;;8.47;;
59828;SDS011;45708;51.848;107.620;2023-02-28T16:17:45;23.17;;;9.97;;
59828;SDS011;45708;51.848;107.620;2023-02-28T16:22:46;23.00;;;11.60;;
59828;SDS011;45708;51.848;107.620;2023-02-28T16:27:48;20.07;;;9.13;;
59828;SDS011;45708;51.848;107.620;2023-02-28T16:32:52;22.00;;;8.73;;
59828;SDS011;45708;51.848;107.620;2023-02-28T16:37:55;31.30;;;11.70;;
59828;SDS011;45708;51.848;107.620;2023-02-28T16:42:57;19.47;;;10.13;;
59828;SDS011;45708;51.848;107.620;2023-02-28T16:48:00;17.17;;;10.53;;
59828;SDS011;45708;51.848;107.620;2023-02-28T16:53:01;22.37;;;11.67;;
59828;SDS011;45708;51.848;107.620;2023-02-28T16:58:04;22.73;;;10.20;;
59828;SDS011;45708;51.848;107.620;2023-02-28T17:03:07;19.47;;;11.07;;
59828;SDS011;45708;51.848;107.620;2023-02-28T17:08:19;20.37;;;12.03;;
59828;SDS011;45708;51.848;107.620;2023-02-28T17:13:22;25.03;;;9.93;;
59828;SDS011;45708;51.848;107.620;2023-02-28T17:18:24;37.57;;;14.20;;
59828;SDS011;45708;51.848;107.620;2023-02-28T17:23:27;18.50;;;9.73;;
59828;SDS011;45708;51.848;107.620;2023-02-28T17:28:28;28.93;;;11.63;;
59828;SDS011;45708;51.848;107.620;2023-02-28T17:33:29;15.87;;;7.77;;
59828;SDS011;45708;51.848;107.620;2023-02-28T17:38:29;21.67;;;12.33;;
59828;SDS011;45708;51.848;107.620;2023-02-28T17:43:32;38.60;;;11.37;;
59828;SDS011;45708;51.848;107.620;2023-02-28T17:48:33;27.33;;;9.60;;
59828;SDS011;45708;51.848;107.620;2023-02-28T17:53:34;10.07;;;6.60;;
59828;SDS011;45708;51.848;107.620;2023-02-28T17:58:35;15.27;;;6.83;;
59828;SDS011;45708;51.848;107.620;2023-02-28T18:03:36;25.27;;;10.47;;
59828;SDS011;45708;51.848;107.620;2023-02-28T18:08:37;23.40;;;10.00;;
59828;SDS011;45708;51.848;107.620;2023-02-28T18:13:38;16.07;;;7.77;;
59828;SDS011;45708;51.848;107.620;2023-02-28T18:18:40;10.70;;;7.60;;
59828;SDS011;45708;51.848;107.620;2023-02-28T18:23:42;19.70;;;10.03;;
59828;SDS011;45708;51.848;107.620;2023-02-28T18:28:44;25.83;;;9.77;;
59828;SDS011;45708;51.848;107.620;2023-02-28T18:33:49;12.70;;;7.33;;
59828;SDS011;45708;51.848;107.620;2023-02-28T18:38:51;32.03;;;8.57;;
59828;SDS011;45708;51.848;107.620;2023-02-28T18:43:52;19.80;;;9.43;;
59828;SDS011;45708;51.848;107.620;2023-02-28T18:48:53;8.07;;;6.90;;
59828;SDS011;45708;51.848;107.620;2023-02-28T18:53:54;27.73;;;10.90;;
59828;SDS011;45708;51.848;107.620;2023-02-28T18:58:54;13.70;;;7.60;;
59828;SDS011;45708;51.848;107.620;2023-02-28T19:03:55;30.50;;;10.73;;
59828;SDS011;45708;51.848;107.620;2023-02-28T19:08:58;27.80;;;13.00;;
59828;SDS011;45708;51.848;107.620;2023-02-28T19:14:00;30.10;;;11.80;;
59828;SDS011;45708;51.848;107.620;2023-02-28T19:19:01;27.30;;;13.37;;
59828;SDS011;45708;51.848;107.620;2023-02-28T19:24:02;8.20;;;7.67;;
59828;SDS011;45708;51.848;107.620;2023-02-28T19:29:04;14.60;;;11.07;;
59828;SDS011;45708;51.848;107.620;2023-02-28T19:34:05;13.23;;;8.33;;
59828;SDS011;45708;51.848;107.620;2023-02-28T19:39:06;10.97;;;7.43;;
59828;SDS011;45708;51.848;107.620;2023-02-28T19:44:06;22.87;;;11.00;;
59828;SDS011;45708;51.848;107.620;2023-02-28T19:49:07;12.73;;;7.73;;
59828;SDS011;45708;51.848;107.620;2023-02-28T19:54:08;19.47;;;9.93;;
59828;SDS011;45708;51.848;107.620;2023-02-28T19:59:09;16.63;;;10.73;;
59828;SDS011;45708;51.848;107.620;2023-02-28T20:04:10;18.43;;;7.33;;
59828;SDS011;45708;51.848;107.620;2023-02-28T20:09:10;21.27;;;8.70;;
59828;SDS011;45708;51.848;107.620;2023-02-28T20:14:12;23.77;;;13.30;;
59828;SDS011;45708;51.848;107.620;2023-02-28T20:19:13;22.27;;;9.33;;
59828;SDS011;45708;51.848;107.620;2023-02-28T20:24:14;16.23;;;7.93;;
59828;SDS011;45708;51.848;107.620;2023-02-28T20:29:15;19.77;;;9.20;;
59828;SDS011;45708;51.848;107.620;2023-02-28T20:34:15;15.67;;;10.47;;
59828;SDS011;45708;51.848;107.620;2023-02-28T20:39:16;20.70;;;9.27;;
59828;SDS011;45708;51.848;107.620;2023-02-28T20:44:17;15.73;;;8.07;;
59828;SDS011;45708;51.848;107.620;2023-02-28T20:49:18;22.77;;;8.37;;
59828;SDS011;45708;51.848;107.620;2023-02-28T20:54:19;12.80;;;11.13;;
59828;SDS011;45708;51.848;107.620;2023-02-28T20:59:20;17.33;;;8.40;;
59828;SDS011;45708;51.848;107.620;2023-02-28T21:04:21;25.07;;;11.67;;
59828;SDS011;45708;51.848;107.620;2023-02-28T21:09:22;15.77;;;8.00;;
59828;SDS011;45708;51.848;107.620;2023-02-28T21:14:23;18.23;;;8.50;;
59828;SDS011;45708;51.848;107.620;2023-02-28T21:19:24;14.43;;;9.03;;
59828;SDS011;45708;51.848;107.620;2023-02-28T21:24:24;15.47;;;9.60;;
59828;SDS011;45708;51.848;107.620;2023-02-28T21:29:25;15.70;;;8.33;;
59828;SDS011;45708;51.848;107.620;2023-02-28T21:34:26;23.83;;;8.17;;
59828;SDS011;45708;51.848;107.620;2023-02-28T21:39:27;24.67;;;9.07;;
59828;SDS011;45708;51.848;107.620;2023-02-28T21:44:28;18.50;;;9.43;;
59828;SDS011;45708;51.848;107.620;2023-02-28T21:49:30;34.83;;;16.97;;
59828;SDS011;45708;51.848;107.620;2023-02-28T21:54:31;29.30;;;15.53;;
59828;SDS011;45708;51.848;107.620;2023-02-28T21:59:31;20.50;;;10.43;;
59828;SDS011;45708;51.848;107.620;2023-02-28T22:04:32;28.60;;;15.40;;
59828;SDS011;45708;51.848;107.620;2023-02-28T22:09:33;39.30;;;15.50;;
59828;SDS011;45708;51.848;107.620;2023-02-28T22:14:34;53.13;;;24.93;;
59828;SDS011;45708;51.848;107.620;2023-02-28T22:19:35;12.27;;;6.37;;
59828;SDS011;45708;51.848;107.620;2023-02-28T22:24:36;34.03;;;19.07;;
59828;SDS011;45708;51.848;107.620;2023-02-28T22:29:38;49.87;;;23.43;;
59828;SDS011;45708;51.848;107.620;2023-02-28T22:34:39;57.10;;;26.97;;
59828;SDS011;45708;51.848;107.620;2023-02-28T22:39:39;100.63;;;39.73;;
59828;SDS011;45708;51.848;107.620;2023-02-28T22:44:41;58.83;;;25.20;;
59828;SDS011;45708;51.848;107.620;2023-02-28T22:49:42;40.43;;;19.20;;
59828;SDS011;45708;51.848;107.620;2023-02-28T22:54:43;27.00;;;13.53;;
59828;SDS011;45708;51.848;107.620;2023-02-28T22:59:43;53.47;;;22.33;;
59828;SDS011;45708;51.848;107.620;2023-02-28T23:04:44;29.83;;;14.47;;
59828;SDS011;45708;51.848;107.620;2023-02-28T23:09:48;36.60;;;19.23;;
59828;SDS011;45708;51.848;107.620;2023-02-28T23:14:51;55.30;;;20.30;;
59828;SDS011;45708;51.848;107.620;2023-02-28T23:19:53;31.27;;;14.90;;
59828;SDS011;45708;51.848;107.620;2023-02-28T23:24:54;17.03;;;13.27;;
59828;SDS011;45708;51.848;107.620;2023-02-28T23:29:54;14.10;;;7.60;;
59828;SDS011;45708;51.848;107.620;2023-02-28T23:34:55;64.63;;;25.33;;
59828;SDS011;45708;51.848;107.620;2023-02-28T23:39:56;21.77;;;10.57;;
59828;SDS011;45708;51.848;107.620;2023-02-28T23:44:57;33.33;;;21.23;;
59828;SDS011;45708;51.848;107.620;2023-02-28T23:49:58;60.63;;;22.47;;
59828;SDS011;45708;51.848;107.620;2023-02-28T23:54:58;67.33;;;28.53;;
59828;SDS011;45708;51.848;107.620;2023-02-28T23:59:59;56.83;;;25.97;;
